Terminal Aerodrome Forecast
Issued by NWS Wilmington, NC

Home | Current Version | Previous Version | Text Only | Print | Product List | Glossary On
Versions: 1 2 3 4 5 6 7 8 9 10 11 12 13 14 15
389
FTUS42 KILM 250520
TAFILM
TAF
KILM 250520Z 2506/2606 22006KT P6SM SKC
     FM251700 19010G17KT P6SM SCT050
     FM260000 21004KT P6SM SKC=

USA.gov is the U.S. government's official web portal to all federal, state and local government web resources and services.